sensor_id;sensor_type;location;lat;lon;timestamp;P1;durP1;ratioP1;P2;durP2;ratioP2
13048;SDS011;6591;51.446;5.404;2023-01-10T00:01:45;7.40;;;3.40;;
13048;SDS011;6591;51.446;5.404;2023-01-10T00:04:12;9.37;;;3.23;;
13048;SDS011;6591;51.446;5.404;2023-01-10T00:06:39;7.97;;;3.33;;
13048;SDS011;6591;51.446;5.404;2023-01-10T00:09:09;7.33;;;3.07;;
13048;SDS011;6591;51.446;5.404;2023-01-10T00:11:37;7.23;;;3.17;;
13048;SDS011;6591;51.446;5.404;2023-01-10T00:14:25;9.00;;;3.20;;
13048;SDS011;6591;51.446;5.404;2023-01-10T00:17:13;9.67;;;3.77;;
13048;SDS011;6591;51.446;5.404;2023-01-10T00:19:40;9.57;;;3.90;;
13048;SDS011;6591;51.446;5.404;2023-01-10T00:22:10;9.40;;;3.30;;
13048;SDS011;6591;51.446;5.404;2023-01-10T00:24:37;6.60;;;3.47;;
13048;SDS011;6591;51.446;5.404;2023-01-10T00:27:04;9.33;;;3.20;;
13048;SDS011;6591;51.446;5.404;2023-01-10T00:29:32;7.93;;;3.30;;
13048;SDS011;6591;51.446;5.404;2023-01-10T00:32:00;6.60;;;3.47;;
13048;SDS011;6591;51.446;5.404;2023-01-10T00:34:27;7.57;;;3.53;;
13048;SDS011;6591;51.446;5.404;2023-01-10T00:36:55;8.87;;;3.70;;
13048;SDS011;6591;51.446;5.404;2023-01-10T00:39:22;8.07;;;3.40;;
13048;SDS011;6591;51.446;5.404;2023-01-10T00:41:52;10.70;;;4.00;;
13048;SDS011;6591;51.446;5.404;2023-01-10T00:44:38;13.63;;;4.23;;
13048;SDS011;6591;51.446;5.404;2023-01-10T00:47:05;10.07;;;3.80;;
13048;SDS011;6591;51.446;5.404;2023-01-10T00:49:32;11.50;;;4.57;;
13048;SDS011;6591;51.446;5.404;2023-01-10T00:51:59;8.13;;;3.43;;
13048;SDS011;6591;51.446;5.404;2023-01-10T00:54:27;9.17;;;3.77;;
13048;SDS011;6591;51.446;5.404;2023-01-10T00:56:57;9.63;;;3.77;;
13048;SDS011;6591;51.446;5.404;2023-01-10T00:59:24;11.13;;;3.97;;
13048;SDS011;6591;51.446;5.404;2023-01-10T01:01:51;8.77;;;3.63;;
13048;SDS011;6591;51.446;5.404;2023-01-10T01:04:18;8.87;;;4.10;;
13048;SDS011;6591;51.446;5.404;2023-01-10T01:06:46;10.63;;;4.23;;
13048;SDS011;6591;51.446;5.404;2023-01-10T01:09:14;12.97;;;4.07;;
13048;SDS011;6591;51.446;5.404;2023-01-10T01:11:41;8.80;;;3.90;;
13048;SDS011;6591;51.446;5.404;2023-01-10T01:14:08;9.50;;;3.30;;
13048;SDS011;6591;51.446;5.404;2023-01-10T01:16:35;9.47;;;3.80;;
13048;SDS011;6591;51.446;5.404;2023-01-10T01:19:02;9.77;;;3.57;;
13048;SDS011;6591;51.446;5.404;2023-01-10T01:21:30;8.40;;;4.20;;
13048;SDS011;6591;51.446;5.404;2023-01-10T01:23:57;8.50;;;4.07;;
13048;SDS011;6591;51.446;5.404;2023-01-10T01:26:25;11.23;;;4.33;;
13048;SDS011;6591;51.446;5.404;2023-01-10T01:28:52;9.87;;;3.77;;
13048;SDS011;6591;51.446;5.404;2023-01-10T01:31:19;11.90;;;4.10;;
13048;SDS011;6591;51.446;5.404;2023-01-10T01:33:46;10.03;;;3.93;;
13048;SDS011;6591;51.446;5.404;2023-01-10T01:36:13;10.50;;;4.13;;
13048;SDS011;6591;51.446;5.404;2023-01-10T01:38:40;10.50;;;3.90;;
13048;SDS011;6591;51.446;5.404;2023-01-10T01:41:08;11.50;;;3.80;;
13048;SDS011;6591;51.446;5.404;2023-01-10T01:43:58;10.07;;;3.97;;
13048;SDS011;6591;51.446;5.404;2023-01-10T01:46:39;7.47;;;4.27;;
13048;SDS011;6591;51.446;5.404;2023-01-10T01:49:15;14.70;;;4.80;;
13048;SDS011;6591;51.446;5.404;2023-01-10T01:51:51;12.63;;;4.30;;
13048;SDS011;6591;51.446;5.404;2023-01-10T01:54:25;6.33;;;3.77;;
13048;SDS011;6591;51.446;5.404;2023-01-10T01:57:02;7.63;;;3.40;;
13048;SDS011;6591;51.446;5.404;2023-01-10T01:59:40;8.77;;;3.70;;
13048;SDS011;6591;51.446;5.404;2023-01-10T02:02:24;11.17;;;3.90;;
13048;SDS011;6591;51.446;5.404;2023-01-10T02:05:09;7.50;;;3.50;;
13048;SDS011;6591;51.446;5.404;2023-01-10T02:07:45;9.23;;;3.97;;
13048;SDS011;6591;51.446;5.404;2023-01-10T02:10:25;8.37;;;3.50;;
13048;SDS011;6591;51.446;5.404;2023-01-10T02:13:19;9.90;;;3.37;;
13048;SDS011;6591;51.446;5.404;2023-01-10T02:15:50;8.47;;;3.60;;
13048;SDS011;6591;51.446;5.404;2023-01-10T02:18:18;10.27;;;3.40;;
13048;SDS011;6591;51.446;5.404;2023-01-10T02:21:00;7.20;;;3.10;;
13048;SDS011;6591;51.446;5.404;2023-01-10T02:33:05;9.50;;;3.40;;
13048;SDS011;6591;51.446;5.404;2023-01-10T02:41:55;7.43;;;3.53;;
13048;SDS011;6591;51.446;5.404;2023-01-10T02:44:39;7.33;;;2.83;;
13048;SDS011;6591;51.446;5.404;2023-01-10T02:47:20;10.50;;;3.43;;
13048;SDS011;6591;51.446;5.404;2023-01-10T02:49:49;8.27;;;3.23;;
13048;SDS011;6591;51.446;5.404;2023-01-10T02:52:21;9.30;;;3.10;;
13048;SDS011;6591;51.446;5.404;2023-01-10T02:54:58;8.27;;;3.00;;
13048;SDS011;6591;51.446;5.404;2023-01-10T03:00:14;9.80;;;2.97;;
13048;SDS011;6591;51.446;5.404;2023-01-10T03:08:41;10.57;;;3.60;;
13048;SDS011;6591;51.446;5.404;2023-01-10T03:11:26;10.30;;;2.90;;
13048;SDS011;6591;51.446;5.404;2023-01-10T03:14:11;7.70;;;3.10;;
13048;SDS011;6591;51.446;5.404;2023-01-10T03:16:50;10.13;;;4.00;;
13048;SDS011;6591;51.446;5.404;2023-01-10T03:19:25;9.93;;;3.40;;
13048;SDS011;6591;51.446;5.404;2023-01-10T03:22:00;9.27;;;3.23;;
13048;SDS011;6591;51.446;5.404;2023-01-10T03:24:33;11.63;;;3.27;;
13048;SDS011;6591;51.446;5.404;2023-01-10T03:30:27;12.53;;;3.20;;
13048;SDS011;6591;51.446;5.404;2023-01-10T03:33:01;10.23;;;3.10;;
13048;SDS011;6591;51.446;5.404;2023-01-10T03:35:33;8.23;;;3.00;;
13048;SDS011;6591;51.446;5.404;2023-01-10T03:38:16;12.13;;;3.40;;
13048;SDS011;6591;51.446;5.404;2023-01-10T03:41:10;15.53;;;4.00;;
13048;SDS011;6591;51.446;5.404;2023-01-10T03:44:01;9.63;;;3.47;;
13048;SDS011;6591;51.446;5.404;2023-01-10T03:47:24;10.60;;;3.17;;
13048;SDS011;6591;51.446;5.404;2023-01-10T03:50:14;7.30;;;2.90;;
13048;SDS011;6591;51.446;5.404;2023-01-10T03:52:47;7.60;;;3.17;;
13048;SDS011;6591;51.446;5.404;2023-01-10T03:55:19;12.23;;;3.60;;
13048;SDS011;6591;51.446;5.404;2023-01-10T03:57:51;9.40;;;3.50;;
13048;SDS011;6591;51.446;5.404;2023-01-10T04:00:19;9.87;;;3.00;;
13048;SDS011;6591;51.446;5.404;2023-01-10T04:02:46;10.37;;;3.37;;
13048;SDS011;6591;51.446;5.404;2023-01-10T04:05:13;9.37;;;3.00;;
13048;SDS011;6591;51.446;5.404;2023-01-10T04:07:41;12.47;;;3.40;;
13048;SDS011;6591;51.446;5.404;2023-01-10T04:10:08;12.63;;;2.87;;
13048;SDS011;6591;51.446;5.404;2023-01-10T04:12:36;11.10;;;3.20;;
13048;SDS011;6591;51.446;5.404;2023-01-10T04:15:03;9.20;;;3.23;;
13048;SDS011;6591;51.446;5.404;2023-01-10T04:17:31;15.50;;;3.50;;
13048;SDS011;6591;51.446;5.404;2023-01-10T04:19:58;11.37;;;3.37;;
13048;SDS011;6591;51.446;5.404;2023-01-10T04:22:25;9.37;;;2.90;;
13048;SDS011;6591;51.446;5.404;2023-01-10T04:24:53;9.80;;;2.77;;
13048;SDS011;6591;51.446;5.404;2023-01-10T04:27:20;9.17;;;3.10;;
13048;SDS011;6591;51.446;5.404;2023-01-10T04:29:47;12.07;;;3.03;;
13048;SDS011;6591;51.446;5.404;2023-01-10T04:32:15;13.40;;;3.50;;
13048;SDS011;6591;51.446;5.404;2023-01-10T04:34:44;10.70;;;3.20;;
13048;SDS011;6591;51.446;5.404;2023-01-10T04:37:11;9.30;;;3.37;;
13048;SDS011;6591;51.446;5.404;2023-01-10T04:39:38;9.33;;;2.87;;
13048;SDS011;6591;51.446;5.404;2023-01-10T04:42:07;16.97;;;2.90;;
13048;SDS011;6591;51.446;5.404;2023-01-10T04:44:34;15.33;;;3.63;;
13048;SDS011;6591;51.446;5.404;2023-01-10T04:47:02;13.63;;;2.97;;
13048;SDS011;6591;51.446;5.404;2023-01-10T04:49:29;10.63;;;2.70;;
13048;SDS011;6591;51.446;5.404;2023-01-10T04:51:56;9.93;;;3.53;;
13048;SDS011;6591;51.446;5.404;2023-01-10T04:54:23;8.90;;;2.77;;
13048;SDS011;6591;51.446;5.404;2023-01-10T04:56:51;11.37;;;3.30;;
13048;SDS011;6591;51.446;5.404;2023-01-10T04:59:18;13.60;;;3.73;;
13048;SDS011;6591;51.446;5.404;2023-01-10T05:01:45;14.43;;;2.97;;
13048;SDS011;6591;51.446;5.404;2023-01-10T05:04:13;14.20;;;3.50;;
13048;SDS011;6591;51.446;5.404;2023-01-10T05:06:41;11.20;;;3.27;;
13048;SDS011;6591;51.446;5.404;2023-01-10T05:09:14;14.27;;;3.30;;
13048;SDS011;6591;51.446;5.404;2023-01-10T05:11:41;11.73;;;3.13;;
13048;SDS011;6591;51.446;5.404;2023-01-10T05:14:10;13.07;;;3.60;;
13048;SDS011;6591;51.446;5.404;2023-01-10T05:16:37;10.60;;;3.37;;
13048;SDS011;6591;51.446;5.404;2023-01-10T05:19:04;15.27;;;4.07;;
13048;SDS011;6591;51.446;5.404;2023-01-10T05:21:31;14.83;;;3.20;;
13048;SDS011;6591;51.446;5.404;2023-01-10T05:23:58;12.97;;;3.17;;
13048;SDS011;6591;51.446;5.404;2023-01-10T05:26:25;12.47;;;3.00;;
13048;SDS011;6591;51.446;5.404;2023-01-10T05:28:52;15.57;;;4.03;;
13048;SDS011;6591;51.446;5.404;2023-01-10T05:31:20;10.80;;;3.10;;
13048;SDS011;6591;51.446;5.404;2023-01-10T05:33:50;13.70;;;3.60;;
13048;SDS011;6591;51.446;5.404;2023-01-10T05:36:17;10.63;;;3.27;;
13048;SDS011;6591;51.446;5.404;2023-01-10T05:38:45;13.67;;;3.67;;
13048;SDS011;6591;51.446;5.404;2023-01-10T05:41:12;12.93;;;3.50;;
13048;SDS011;6591;51.446;5.404;2023-01-10T05:43:40;12.07;;;3.53;;
13048;SDS011;6591;51.446;5.404;2023-01-10T05:46:07;9.20;;;3.70;;
13048;SDS011;6591;51.446;5.404;2023-01-10T05:48:37;14.40;;;3.70;;
13048;SDS011;6591;51.446;5.404;2023-01-10T05:51:04;21.67;;;4.27;;
13048;SDS011;6591;51.446;5.404;2023-01-10T05:53:32;13.17;;;4.00;;
13048;SDS011;6591;51.446;5.404;2023-01-10T05:56:00;10.63;;;3.40;;
13048;SDS011;6591;51.446;5.404;2023-01-10T05:58:28;19.10;;;4.23;;
13048;SDS011;6591;51.446;5.404;2023-01-10T06:00:56;12.70;;;3.27;;
13048;SDS011;6591;51.446;5.404;2023-01-10T06:03:24;13.90;;;3.53;;
13048;SDS011;6591;51.446;5.404;2023-01-10T06:05:55;15.70;;;3.67;;
13048;SDS011;6591;51.446;5.404;2023-01-10T06:08:22;13.60;;;3.57;;
13048;SDS011;6591;51.446;5.404;2023-01-10T06:10:51;17.83;;;3.73;;
13048;SDS011;6591;51.446;5.404;2023-01-10T06:13:18;11.57;;;3.93;;
13048;SDS011;6591;51.446;5.404;2023-01-10T06:15:45;14.70;;;3.87;;
13048;SDS011;6591;51.446;5.404;2023-01-10T06:18:13;15.10;;;3.53;;
13048;SDS011;6591;51.446;5.404;2023-01-10T06:20:42;13.93;;;3.50;;
13048;SDS011;6591;51.446;5.404;2023-01-10T06:23:09;16.13;;;4.07;;
13048;SDS011;6591;51.446;5.404;2023-01-10T06:25:39;16.77;;;3.70;;
13048;SDS011;6591;51.446;5.404;2023-01-10T06:28:10;15.97;;;3.90;;
13048;SDS011;6591;51.446;5.404;2023-01-10T06:30:41;18.77;;;3.93;;
13048;SDS011;6591;51.446;5.404;2023-01-10T06:33:09;13.20;;;3.53;;
13048;SDS011;6591;51.446;5.404;2023-01-10T06:35:37;13.00;;;3.37;;
13048;SDS011;6591;51.446;5.404;2023-01-10T06:38:04;12.73;;;3.13;;
13048;SDS011;6591;51.446;5.404;2023-01-10T06:40:32;13.57;;;3.87;;
13048;SDS011;6591;51.446;5.404;2023-01-10T06:43:02;8.53;;;3.17;;
13048;SDS011;6591;51.446;5.404;2023-01-10T06:45:29;13.70;;;3.00;;
13048;SDS011;6591;51.446;5.404;2023-01-10T06:47:56;15.17;;;3.20;;
13048;SDS011;6591;51.446;5.404;2023-01-10T06:50:23;13.47;;;3.70;;
13048;SDS011;6591;51.446;5.404;2023-01-10T06:52:56;12.67;;;3.97;;
13048;SDS011;6591;51.446;5.404;2023-01-10T06:55:25;12.77;;;3.97;;
13048;SDS011;6591;51.446;5.404;2023-01-10T06:57:56;11.07;;;3.90;;
13048;SDS011;6591;51.446;5.404;2023-01-10T07:00:26;15.30;;;4.13;;
13048;SDS011;6591;51.446;5.404;2023-01-10T07:02:58;13.80;;;3.50;;
13048;SDS011;6591;51.446;5.404;2023-01-10T07:05:27;13.20;;;3.50;;
13048;SDS011;6591;51.446;5.404;2023-01-10T07:07:55;10.23;;;3.60;;
13048;SDS011;6591;51.446;5.404;2023-01-10T07:10:23;9.67;;;4.13;;
13048;SDS011;6591;51.446;5.404;2023-01-10T07:12:54;13.90;;;3.40;;
13048;SDS011;6591;51.446;5.404;2023-01-10T07:15:22;13.83;;;3.90;;
13048;SDS011;6591;51.446;5.404;2023-01-10T07:17:50;9.77;;;3.50;;
13048;SDS011;6591;51.446;5.404;2023-01-10T07:20:19;11.47;;;3.40;;
13048;SDS011;6591;51.446;5.404;2023-01-10T07:22:55;14.87;;;3.73;;
13048;SDS011;6591;51.446;5.404;2023-01-10T07:25:25;12.90;;;3.60;;
13048;SDS011;6591;51.446;5.404;2023-01-10T07:27:54;12.10;;;3.50;;
13048;SDS011;6591;51.446;5.404;2023-01-10T07:30:21;16.73;;;3.63;;
13048;SDS011;6591;51.446;5.404;2023-01-10T07:32:54;13.30;;;3.47;;
13048;SDS011;6591;51.446;5.404;2023-01-10T07:35:23;14.17;;;3.70;;
13048;SDS011;6591;51.446;5.404;2023-01-10T07:37:50;14.93;;;4.00;;
13048;SDS011;6591;51.446;5.404;2023-01-10T07:40:18;12.97;;;3.43;;
13048;SDS011;6591;51.446;5.404;2023-01-10T07:42:45;14.13;;;3.47;;
13048;SDS011;6591;51.446;5.404;2023-01-10T07:45:12;11.60;;;3.43;;
13048;SDS011;6591;51.446;5.404;2023-01-10T07:47:39;13.67;;;3.57;;
13048;SDS011;6591;51.446;5.404;2023-01-10T07:50:08;13.57;;;3.63;;
13048;SDS011;6591;51.446;5.404;2023-01-10T07:52:36;13.83;;;4.03;;
13048;SDS011;6591;51.446;5.404;2023-01-10T07:55:04;11.70;;;3.37;;
13048;SDS011;6591;51.446;5.404;2023-01-10T07:57:31;12.90;;;3.13;;
13048;SDS011;6591;51.446;5.404;2023-01-10T07:59:58;12.07;;;3.43;;
13048;SDS011;6591;51.446;5.404;2023-01-10T08:02:25;13.50;;;3.83;;
13048;SDS011;6591;51.446;5.404;2023-01-10T08:04:53;15.03;;;4.63;;
13048;SDS011;6591;51.446;5.404;2023-01-10T08:07:20;12.47;;;3.80;;
13048;SDS011;6591;51.446;5.404;2023-01-10T08:09:47;15.13;;;3.90;;
13048;SDS011;6591;51.446;5.404;2023-01-10T08:12:14;12.90;;;3.90;;
13048;SDS011;6591;51.446;5.404;2023-01-10T08:14:41;15.30;;;3.83;;
13048;SDS011;6591;51.446;5.404;2023-01-10T08:17:08;11.90;;;3.80;;
13048;SDS011;6591;51.446;5.404;2023-01-10T08:19:35;12.27;;;3.47;;
13048;SDS011;6591;51.446;5.404;2023-01-10T08:22:02;12.97;;;3.33;;
13048;SDS011;6591;51.446;5.404;2023-01-10T08:24:29;11.57;;;3.63;;
13048;SDS011;6591;51.446;5.404;2023-01-10T08:26:57;11.77;;;3.97;;
13048;SDS011;6591;51.446;5.404;2023-01-10T08:29:24;10.30;;;3.23;;
13048;SDS011;6591;51.446;5.404;2023-01-10T08:31:51;13.03;;;3.57;;
13048;SDS011;6591;51.446;5.404;2023-01-10T08:34:21;11.37;;;3.00;;
13048;SDS011;6591;51.446;5.404;2023-01-10T08:36:49;15.90;;;3.90;;
13048;SDS011;6591;51.446;5.404;2023-01-10T08:39:19;12.50;;;3.13;;
13048;SDS011;6591;51.446;5.404;2023-01-10T08:41:48;11.60;;;3.43;;
13048;SDS011;6591;51.446;5.404;2023-01-10T08:44:15;11.63;;;3.53;;
13048;SDS011;6591;51.446;5.404;2023-01-10T08:46:44;12.37;;;3.97;;
13048;SDS011;6591;51.446;5.404;2023-01-10T08:49:12;13.07;;;4.00;;
13048;SDS011;6591;51.446;5.404;2023-01-10T08:51:39;11.77;;;3.30;;
13048;SDS011;6591;51.446;5.404;2023-01-10T08:54:10;14.43;;;4.23;;
13048;SDS011;6591;51.446;5.404;2023-01-10T08:56:37;12.27;;;3.60;;
13048;SDS011;6591;51.446;5.404;2023-01-10T08:59:06;13.97;;;3.40;;
13048;SDS011;6591;51.446;5.404;2023-01-10T09:01:33;12.13;;;3.60;;
13048;SDS011;6591;51.446;5.404;2023-01-10T09:04:02;7.50;;;3.10;;
13048;SDS011;6591;51.446;5.404;2023-01-10T09:06:30;16.33;;;3.43;;
13048;SDS011;6591;51.446;5.404;2023-01-10T09:08:57;10.57;;;3.07;;
13048;SDS011;6591;51.446;5.404;2023-01-10T09:11:25;8.07;;;3.20;;
13048;SDS011;6591;51.446;5.404;2023-01-10T09:13:52;12.77;;;3.33;;
13048;SDS011;6591;51.446;5.404;2023-01-10T09:16:18;11.57;;;3.20;;
13048;SDS011;6591;51.446;5.404;2023-01-10T09:18:45;20.93;;;4.20;;
13048;SDS011;6591;51.446;5.404;2023-01-10T09:21:12;9.47;;;3.17;;
13048;SDS011;6591;51.446;5.404;2023-01-10T09:23:39;17.40;;;4.20;;
13048;SDS011;6591;51.446;5.404;2023-01-10T09:26:09;8.53;;;3.33;;
13048;SDS011;6591;51.446;5.404;2023-01-10T09:28:36;10.50;;;2.93;;
13048;SDS011;6591;51.446;5.404;2023-01-10T09:31:03;13.13;;;3.47;;
13048;SDS011;6591;51.446;5.404;2023-01-10T09:33:37;15.23;;;3.67;;
13048;SDS011;6591;51.446;5.404;2023-01-10T09:36:12;12.70;;;3.37;;
13048;SDS011;6591;51.446;5.404;2023-01-10T09:38:41;10.47;;;2.93;;
13048;SDS011;6591;51.446;5.404;2023-01-10T09:46:52;10.30;;;2.80;;
13048;SDS011;6591;51.446;5.404;2023-01-10T09:52:45;13.97;;;3.33;;
13048;SDS011;6591;51.446;5.404;2023-01-10T09:55:41;15.60;;;3.50;;
13048;SDS011;6591;51.446;5.404;2023-01-10T09:58:12;15.07;;;3.30;;
13048;SDS011;6591;51.446;5.404;2023-01-10T10:00:50;12.20;;;4.10;;
13048;SDS011;6591;51.446;5.404;2023-01-10T10:06:30;8.40;;;2.93;;
13048;SDS011;6591;51.446;5.404;2023-01-10T10:08:59;12.67;;;3.27;;
13048;SDS011;6591;51.446;5.404;2023-01-10T10:11:36;10.73;;;3.17;;
13048;SDS011;6591;51.446;5.404;2023-01-10T10:14:32;12.00;;;3.33;;
13048;SDS011;6591;51.446;5.404;2023-01-10T10:23:01;12.50;;;3.00;;
13048;SDS011;6591;51.446;5.404;2023-01-10T10:35:12;9.80;;;2.93;;
13048;SDS011;6591;51.446;5.404;2023-01-10T10:38:04;11.03;;;3.07;;
13048;SDS011;6591;51.446;5.404;2023-01-10T10:40:43;9.87;;;3.73;;
13048;SDS011;6591;51.446;5.404;2023-01-10T10:43:18;8.77;;;2.90;;
13048;SDS011;6591;51.446;5.404;2023-01-10T10:45:54;12.47;;;2.90;;
13048;SDS011;6591;51.446;5.404;2023-01-10T10:48:32;13.20;;;3.10;;
13048;SDS011;6591;51.446;5.404;2023-01-10T10:51:25;10.77;;;2.93;;
13048;SDS011;6591;51.446;5.404;2023-01-10T10:54:05;10.77;;;2.80;;
13048;SDS011;6591;51.446;5.404;2023-01-10T10:56:37;11.10;;;3.20;;
13048;SDS011;6591;51.446;5.404;2023-01-10T10:59:14;10.37;;;2.80;;
13048;SDS011;6591;51.446;5.404;2023-01-10T11:01:48;9.97;;;3.77;;
13048;SDS011;6591;51.446;5.404;2023-01-10T11:04:22;12.23;;;3.07;;
13048;SDS011;6591;51.446;5.404;2023-01-10T11:06:50;13.63;;;3.70;;
13048;SDS011;6591;51.446;5.404;2023-01-10T11:09:19;13.07;;;3.20;;
13048;SDS011;6591;51.446;5.404;2023-01-10T11:12:15;8.80;;;3.57;;
13048;SDS011;6591;51.446;5.404;2023-01-10T11:14:49;12.13;;;3.50;;
13048;SDS011;6591;51.446;5.404;2023-01-10T11:17:24;10.10;;;3.23;;
13048;SDS011;6591;51.446;5.404;2023-01-10T11:19:57;12.40;;;3.87;;
13048;SDS011;6591;51.446;5.404;2023-01-10T11:22:54;16.37;;;4.00;;
13048;SDS011;6591;51.446;5.404;2023-01-10T11:25:36;14.37;;;3.10;;
13048;SDS011;6591;51.446;5.404;2023-01-10T11:28:12;9.37;;;3.40;;
13048;SDS011;6591;51.446;5.404;2023-01-10T11:30:46;13.60;;;3.63;;
13048;SDS011;6591;51.446;5.404;2023-01-10T11:33:20;11.03;;;3.47;;
13048;SDS011;6591;51.446;5.404;2023-01-10T11:35:56;12.00;;;4.00;;
13048;SDS011;6591;51.446;5.404;2023-01-10T11:38:32;8.43;;;3.00;;
13048;SDS011;6591;51.446;5.404;2023-01-10T11:41:02;13.07;;;3.37;;
13048;SDS011;6591;51.446;5.404;2023-01-10T11:43:47;7.57;;;3.10;;
13048;SDS011;6591;51.446;5.404;2023-01-10T11:46:15;12.73;;;3.33;;
13048;SDS011;6591;51.446;5.404;2023-01-10T11:48:51;11.03;;;3.10;;
13048;SDS011;6591;51.446;5.404;2023-01-10T11:51:35;10.30;;;3.17;;
13048;SDS011;6591;51.446;5.404;2023-01-10T11:54:10;15.20;;;3.40;;
13048;SDS011;6591;51.446;5.404;2023-01-10T11:59:58;14.03;;;3.50;;
13048;SDS011;6591;51.446;5.404;2023-01-10T12:02:39;10.97;;;3.03;;
13048;SDS011;6591;51.446;5.404;2023-01-10T12:05:19;11.80;;;3.60;;
13048;SDS011;6591;51.446;5.404;2023-01-10T12:07:53;10.80;;;3.23;;
13048;SDS011;6591;51.446;5.404;2023-01-10T12:10:33;11.47;;;3.27;;
13048;SDS011;6591;51.446;5.404;2023-01-10T12:13:13;12.53;;;3.13;;
13048;SDS011;6591;51.446;5.404;2023-01-10T12:15:42;8.00;;;3.50;;
13048;SDS011;6591;51.446;5.404;2023-01-10T12:18:09;10.50;;;3.37;;
13048;SDS011;6591;51.446;5.404;2023-01-10T12:20:47;8.97;;;2.80;;
13048;SDS011;6591;51.446;5.404;2023-01-10T12:23:20;12.60;;;3.50;;
13048;SDS011;6591;51.446;5.404;2023-01-10T12:25:50;9.40;;;3.10;;
13048;SDS011;6591;51.446;5.404;2023-01-10T12:28:36;9.80;;;3.53;;
13048;SDS011;6591;51.446;5.404;2023-01-10T12:31:11;12.83;;;3.47;;
13048;SDS011;6591;51.446;5.404;2023-01-10T12:33:44;12.00;;;3.90;;
13048;SDS011;6591;51.446;5.404;2023-01-10T12:39:47;12.27;;;3.17;;
13048;SDS011;6591;51.446;5.404;2023-01-10T12:45:49;11.87;;;3.87;;
13048;SDS011;6591;51.446;5.404;2023-01-10T12:51:16;12.10;;;3.33;;
13048;SDS011;6591;51.446;5.404;2023-01-10T12:53:52;7.73;;;2.90;;
13048;SDS011;6591;51.446;5.404;2023-01-10T12:56:24;13.03;;;3.30;;
13048;SDS011;6591;51.446;5.404;2023-01-10T12:58:53;14.80;;;3.33;;
13048;SDS011;6591;51.446;5.404;2023-01-10T13:01:33;10.17;;;3.00;;
13048;SDS011;6591;51.446;5.404;2023-01-10T13:04:12;7.83;;;2.97;;
13048;SDS011;6591;51.446;5.404;2023-01-10T13:06:48;12.50;;;3.00;;
13048;SDS011;6591;51.446;5.404;2023-01-10T13:09:17;9.97;;;3.60;;
13048;SDS011;6591;51.446;5.404;2023-01-10T13:14:47;13.07;;;3.80;;
13048;SDS011;6591;51.446;5.404;2023-01-10T13:17:46;14.23;;;3.00;;
13048;SDS011;6591;51.446;5.404;2023-01-10T13:22:48;8.83;;;2.90;;
13048;SDS011;6591;51.446;5.404;2023-01-10T13:30:42;14.13;;;3.73;;
13048;SDS011;6591;51.446;5.404;2023-01-10T13:33:23;13.90;;;2.90;;
13048;SDS011;6591;51.446;5.404;2023-01-10T13:36:06;11.17;;;2.83;;
13048;SDS011;6591;51.446;5.404;2023-01-10T13:38:46;9.00;;;2.73;;
13048;SDS011;6591;51.446;5.404;2023-01-10T13:41:17;14.87;;;3.30;;
13048;SDS011;6591;51.446;5.404;2023-01-10T13:44:06;9.40;;;2.90;;
13048;SDS011;6591;51.446;5.404;2023-01-10T13:46:43;9.47;;;3.00;;
13048;SDS011;6591;51.446;5.404;2023-01-10T13:49:25;9.97;;;2.90;;
13048;SDS011;6591;51.446;5.404;2023-01-10T13:54:58;10.23;;;2.83;;
13048;SDS011;6591;51.446;5.404;2023-01-10T13:57:49;13.33;;;3.80;;
13048;SDS011;6591;51.446;5.404;2023-01-10T14:03:39;10.30;;;2.90;;
13048;SDS011;6591;51.446;5.404;2023-01-10T14:06:14;10.10;;;3.30;;
13048;SDS011;6591;51.446;5.404;2023-01-10T14:09:00;15.20;;;3.33;;
13048;SDS011;6591;51.446;5.404;2023-01-10T14:11:46;11.40;;;3.23;;
13048;SDS011;6591;51.446;5.404;2023-01-10T14:14:22;10.43;;;3.30;;
13048;SDS011;6591;51.446;5.404;2023-01-10T14:17:09;11.57;;;3.20;;
13048;SDS011;6591;51.446;5.404;2023-01-10T14:20:06;8.87;;;2.70;;
13048;SDS011;6591;51.446;5.404;2023-01-10T14:23:04;11.67;;;3.20;;
13048;SDS011;6591;51.446;5.404;2023-01-10T14:25:44;9.00;;;2.90;;
13048;SDS011;6591;51.446;5.404;2023-01-10T14:28:38;12.53;;;3.43;;
13048;SDS011;6591;51.446;5.404;2023-01-10T14:31:16;10.87;;;2.70;;
13048;SDS011;6591;51.446;5.404;2023-01-10T14:33:50;11.63;;;3.10;;
13048;SDS011;6591;51.446;5.404;2023-01-10T14:36:20;10.10;;;3.00;;
13048;SDS011;6591;51.446;5.404;2023-01-10T14:38:55;8.80;;;2.83;;
13048;SDS011;6591;51.446;5.404;2023-01-10T14:41:31;8.10;;;2.90;;
13048;SDS011;6591;51.446;5.404;2023-01-10T14:46:49;10.13;;;3.20;;
13048;SDS011;6591;51.446;5.404;2023-01-10T14:49:27;7.40;;;2.77;;
13048;SDS011;6591;51.446;5.404;2023-01-10T14:52:21;9.93;;;2.70;;
13048;SDS011;6591;51.446;5.404;2023-01-10T14:55:00;5.60;;;2.60;;
13048;SDS011;6591;51.446;5.404;2023-01-10T14:57:55;9.83;;;2.73;;
13048;SDS011;6591;51.446;5.404;2023-01-10T15:00:29;10.87;;;2.83;;
13048;SDS011;6591;51.446;5.404;2023-01-10T15:03:02;7.17;;;2.73;;
13048;SDS011;6591;51.446;5.404;2023-01-10T15:05:30;7.13;;;2.73;;
13048;SDS011;6591;51.446;5.404;2023-01-10T15:08:19;9.73;;;2.57;;
13048;SDS011;6591;51.446;5.404;2023-01-10T15:10:57;8.53;;;2.67;;
13048;SDS011;6591;51.446;5.404;2023-01-10T15:13:32;6.87;;;2.40;;
13048;SDS011;6591;51.446;5.404;2023-01-10T15:16:15;10.07;;;2.90;;
13048;SDS011;6591;51.446;5.404;2023-01-10T15:18:50;7.07;;;2.37;;
13048;SDS011;6591;51.446;5.404;2023-01-10T15:21:18;7.03;;;2.57;;
13048;SDS011;6591;51.446;5.404;2023-01-10T15:23:49;5.67;;;2.27;;
13048;SDS011;6591;51.446;5.404;2023-01-10T15:31:43;8.03;;;2.77;;
13048;SDS011;6591;51.446;5.404;2023-01-10T15:34:14;6.80;;;2.10;;
13048;SDS011;6591;51.446;5.404;2023-01-10T15:36:56;7.07;;;2.27;;
13048;SDS011;6591;51.446;5.404;2023-01-10T15:39:27;7.60;;;2.23;;
13048;SDS011;6591;51.446;5.404;2023-01-10T15:42:00;6.83;;;2.40;;
13048;SDS011;6591;51.446;5.404;2023-01-10T15:44:44;7.57;;;2.30;;
13048;SDS011;6591;51.446;5.404;2023-01-10T15:53:02;6.40;;;2.53;;
13048;SDS011;6591;51.446;5.404;2023-01-10T15:55:44;5.07;;;1.93;;
13048;SDS011;6591;51.446;5.404;2023-01-10T15:58:33;3.87;;;1.83;;
13048;SDS011;6591;51.446;5.404;2023-01-10T16:01:04;7.67;;;2.13;;
13048;SDS011;6591;51.446;5.404;2023-01-10T16:03:32;3.27;;;2.00;;
13048;SDS011;6591;51.446;5.404;2023-01-10T16:06:04;6.13;;;1.97;;
13048;SDS011;6591;51.446;5.404;2023-01-10T16:08:37;4.00;;;1.80;;
13048;SDS011;6591;51.446;5.404;2023-01-10T16:11:14;5.13;;;1.97;;
13048;SDS011;6591;51.446;5.404;2023-01-10T16:14:16;4.57;;;2.07;;
13048;SDS011;6591;51.446;5.404;2023-01-10T16:16:47;4.47;;;1.93;;
13048;SDS011;6591;51.446;5.404;2023-01-10T16:19:21;5.43;;;1.90;;
13048;SDS011;6591;51.446;5.404;2023-01-10T16:21:49;4.70;;;2.13;;
13048;SDS011;6591;51.446;5.404;2023-01-10T16:24:27;3.43;;;1.73;;
13048;SDS011;6591;51.446;5.404;2023-01-10T16:27:03;4.53;;;1.87;;
13048;SDS011;6591;51.446;5.404;2023-01-10T16:29:31;5.27;;;1.70;;
13048;SDS011;6591;51.446;5.404;2023-01-10T16:31:59;2.43;;;1.47;;
13048;SDS011;6591;51.446;5.404;2023-01-10T16:34:36;5.23;;;2.20;;
13048;SDS011;6591;51.446;5.404;2023-01-10T16:37:11;3.50;;;1.93;;
13048;SDS011;6591;51.446;5.404;2023-01-10T16:39:38;4.90;;;1.80;;
13048;SDS011;6591;51.446;5.404;2023-01-10T16:42:08;2.13;;;1.43;;
13048;SDS011;6591;51.446;5.404;2023-01-10T16:44:53;2.40;;;1.47;;
13048;SDS011;6591;51.446;5.404;2023-01-10T16:47:20;3.23;;;1.57;;
13048;SDS011;6591;51.446;5.404;2023-01-10T16:49:47;3.00;;;1.60;;
13048;SDS011;6591;51.446;5.404;2023-01-10T16:52:14;3.43;;;1.60;;
13048;SDS011;6591;51.446;5.404;2023-01-10T16:54:42;2.37;;;1.20;;
13048;SDS011;6591;51.446;5.404;2023-01-10T16:57:10;2.47;;;1.43;;
13048;SDS011;6591;51.446;5.404;2023-01-10T16:59:39;3.37;;;1.50;;
13048;SDS011;6591;51.446;5.404;2023-01-10T17:02:14;2.23;;;1.27;;
13048;SDS011;6591;51.446;5.404;2023-01-10T17:04:52;3.23;;;1.50;;
13048;SDS011;6591;51.446;5.404;2023-01-10T17:07:23;1.77;;;1.30;;